createdAt,value
2023-04-16T00:00:54.995Z,102078.06
2023-04-16T00:03:23.832Z,102076.25
2023-04-16T00:05:51.974Z,102075.38
2023-04-16T00:08:21.357Z,102072.84
2023-04-16T00:10:49.322Z,102077.25
2023-04-16T00:13:17.256Z,102071.88
2023-04-16T00:15:45.375Z,102076.38
2023-04-16T00:18:13.344Z,102079.06
2023-04-16T00:20:41.280Z,102067.47
2023-04-16T00:23:09.260Z,102084.50
2023-04-16T00:25:38.587Z,102090.66
2023-04-16T00:28:06.643Z,102080.88
2023-04-16T00:30:34.572Z,102083.56
2023-04-16T00:33:02.986Z,102077.31
2023-04-16T00:35:31.100Z,102074.66
2023-04-16T00:37:59.384Z,102073.78
2023-04-16T00:40:29.912Z,102076.47
2023-04-16T00:42:59.203Z,102071.09
2023-04-16T00:45:27.225Z,102074.69
2023-04-16T00:47:55.400Z,102063.97
2023-04-16T00:50:24.281Z,102069.34
2023-04-16T00:52:52.394Z,102068.47
2023-04-16T00:55:21.450Z,102075.66
2023-04-16T00:57:49.461Z,102076.50
2023-04-16T01:00:19.002Z,102075.66
2023-04-16T01:02:47.129Z,102079.19
2023-04-16T01:05:18.047Z,102077.47
2023-04-16T01:07:45.987Z,102074.84
2023-04-16T01:10:13.954Z,102080.22
2023-04-16T01:12:41.922Z,102081.13
2023-04-16T01:15:11.340Z,102081.13
2023-04-16T01:17:40.771Z,102073.09
2023-04-16T01:20:09.274Z,102075.78
2023-04-16T01:22:38.612Z,102079.41
2023-04-16T01:25:07.112Z,102083.88
2023-04-16T01:27:35.106Z,102092.78
2023-04-16T01:30:03.095Z,102090.97
2023-04-16T01:32:33.160Z,102090.13
2023-04-16T01:35:01.167Z,102085.72
2023-04-16T01:37:29.750Z,102082.16
2023-04-16T01:39:59.088Z,102087.53
2023-04-16T01:42:26.992Z,102084.84
2023-04-16T01:44:54.978Z,102077.72
2023-04-16T01:47:22.908Z,102082.19
2023-04-16T01:49:50.966Z,102075.94
2023-04-16T01:52:18.928Z,102082.16
2023-04-16T01:54:46.857Z,102078.59
2023-04-16T01:57:16.184Z,102078.59
2023-04-16T01:59:46.339Z,102069.72
2023-04-16T02:02:17.668Z,102076.81
2023-04-16T02:04:48.368Z,102083.06
2023-04-16T02:07:16.340Z,102074.13
2023-04-16T02:09:44.348Z,102077.75
2023-04-16T02:12:12.391Z,102082.19
2023-04-16T02:14:41.744Z,102084.00
2023-04-16T02:17:09.936Z,102086.66
2023-04-16T02:19:38.033Z,102081.38
2023-04-16T02:22:05.981Z,102081.44
2023-04-16T02:24:34.255Z,102079.66
2023-04-16T02:27:02.663Z,102078.72
2023-04-16T02:29:31.889Z,102076.97
2023-04-16T02:32:01.339Z,102081.38
2023-04-16T02:34:29.348Z,102079.56
2023-04-16T02:36:58.365Z,102080.56
2023-04-16T02:39:26.587Z,102085.94
2023-04-16T02:41:54.484Z,102086.78
2023-04-16T02:44:25.013Z,102087.75
2023-04-16T02:46:52.983Z,102078.84
2023-04-16T02:49:22.270Z,102088.63
2023-04-16T02:51:50.255Z,102088.63
2023-04-16T02:54:18.219Z,102089.56
2023-04-16T02:56:46.482Z,102094.91
2023-04-16T02:59:14.463Z,102091.44
2023-04-16T03:01:42.468Z,102094.91
2023-04-16T03:04:10.547Z,102091.44
2023-04-16T03:06:39.828Z,102092.31
2023-04-16T03:09:08.040Z,102095.00
2023-04-16T03:11:36.448Z,102092.31
2023-04-16T03:14:04.326Z,102099.50
2023-04-16T03:16:32.301Z,102114.63
2023-04-16T03:19:00.267Z,102110.22
2023-04-16T03:21:28.377Z,102107.53
2023-04-16T03:23:57.723Z,102108.38
2023-04-16T03:26:25.718Z,102108.44
2023-04-16T03:28:53.647Z,102107.53
2023-04-16T03:31:21.681Z,102111.13
2023-04-16T03:33:49.652Z,102116.47
2023-04-16T03:36:17.680Z,102115.63
2023-04-16T03:38:45.876Z,102115.63
2023-04-16T03:41:15.317Z,102114.81
2023-04-16T03:43:43.410Z,102115.69
2023-04-16T03:46:11.845Z,102121.06
2023-04-16T03:48:42.861Z,102116.69
2023-04-16T03:51:11.070Z,102121.09
2023-04-16T03:53:39.019Z,102106.25
2023-04-16T03:56:09.033Z,102116.59
2023-04-16T03:58:38.370Z,102122.03
2023-04-16T04:01:06.411Z,102120.22
2023-04-16T04:03:34.542Z,102117.56
2023-04-16T04:06:02.678Z,102127.41
2023-04-16T04:08:33.134Z,102127.41
2023-04-16T04:11:01.096Z,102122.97
2023-04-16T04:13:29.146Z,102129.28
2023-04-16T04:15:58.478Z,102133.69
2023-04-16T04:18:26.382Z,102131.06
2023-04-16T04:20:54.342Z,102127.47
2023-04-16T04:23:22.253Z,102129.28
2023-04-16T04:25:50.511Z,102135.56
2023-04-16T04:28:18.565Z,102133.81
2023-04-16T04:30:46.613Z,102130.19
2023-04-16T04:33:15.938Z,102138.25
2023-04-16T04:35:43.905Z,102137.38
2023-04-16T04:38:13.171Z,102136.44
2023-04-16T04:40:42.870Z,102138.31
2023-04-16T04:43:10.954Z,102140.06
2023-04-16T04:45:39.175Z,102137.38
2023-04-16T04:48:07.225Z,102141.78
2023-04-16T04:50:37.146Z,102142.72
2023-04-16T04:53:09.888Z,102145.41
2023-04-16T04:55:38.311Z,102151.63
2023-04-16T04:58:07.062Z,102156.13
2023-04-16T05:00:36.215Z,102159.75
2023-04-16T05:03:06.822Z,102157.06
2023-04-16T05:05:36.511Z,102157.06
2023-04-16T05:08:04.799Z,102160.69
2023-04-16T05:10:32.743Z,102161.56
2023-04-16T05:13:00.666Z,102161.59
2023-04-16T05:15:28.724Z,102159.81
2023-04-16T05:17:57.087Z,102163.38
2023-04-16T05:20:25.192Z,102161.59
2023-04-16T05:22:55.442Z,102166.09
2023-04-16T05:25:23.699Z,102169.72
2023-04-16T05:27:51.685Z,102176.88
2023-04-16T05:30:19.698Z,102167.03
2023-04-16T05:32:47.725Z,102166.16
2023-04-16T05:35:17.548Z,102177.75
2023-04-16T05:37:45.858Z,102175.06
2023-04-16T05:40:15.582Z,102174.22
2023-04-16T05:42:43.572Z,102172.47
2023-04-16T05:45:12.051Z,102180.44
2023-04-16T05:47:40.031Z,102179.56
2023-04-16T05:50:08.807Z,102183.09
2023-04-16T05:52:40.541Z,102178.69
2023-04-16T05:55:08.925Z,102190.53
2023-04-16T05:57:38.306Z,102186.94
2023-04-16T06:00:07.884Z,102182.44
2023-04-16T06:02:38.800Z,102187.66
2023-04-16T06:05:10.055Z,102200.13
2023-04-16T06:07:38.032Z,102200.03
2023-04-16T06:10:06.731Z,102193.75
2023-04-16T06:12:34.694Z,102201.78
2023-04-16T06:15:04.089Z,102202.69
2023-04-16T06:17:32.096Z,102210.75
2023-04-16T06:20:00.119Z,102209.81
2023-04-16T06:22:28.216Z,102216.94
2023-04-16T06:24:56.155Z,102212.38
2023-04-16T06:27:24.076Z,102223.09
2023-04-16T06:29:52.025Z,102217.72
2023-04-16T06:32:21.660Z,102222.22
2023-04-16T06:34:49.647Z,102229.31
2023-04-16T06:37:17.625Z,102226.63
2023-04-16T06:39:45.744Z,102231.50
2023-04-16T06:42:13.760Z,102239.19
2023-04-16T06:44:41.831Z,102239.00
2023-04-16T06:47:09.900Z,102244.22
2023-04-16T06:49:41.960Z,102250.47
2023-04-16T06:52:09.897Z,102247.72
2023-04-16T06:54:37.878Z,102248.53
2023-04-16T06:57:05.861Z,102243.34
2023-04-16T06:59:33.905Z,102252.94
2023-04-16T07:02:02.167Z,102252.94
2023-04-16T07:04:30.221Z,102250.19
2023-04-16T07:06:59.539Z,102252.81
2023-04-16T07:09:27.668Z,102251.06
2023-04-16T07:11:55.972Z,102257.28
2023-04-16T07:14:26.762Z,102260.88
2023-04-16T07:16:54.740Z,102252.94
2023-04-16T07:19:22.785Z,102264.34
2023-04-16T07:21:50.772Z,102259.16
2023-04-16T07:24:20.117Z,102267.09
2023-04-16T07:26:48.080Z,102267.88
2023-04-16T07:29:15.943Z,102270.56
2023-04-16T07:31:44.005Z,102268.75
2023-04-16T07:34:11.975Z,102262.53
2023-04-16T07:36:40.005Z,102271.50
2023-04-16T07:39:08.251Z,102271.44
2023-04-16T07:41:39.957Z,102277.69
2023-04-16T07:44:07.877Z,102274.09
2023-04-16T07:46:45.561Z,102276.78
2023-04-16T07:49:14.740Z,102277.72
2023-04-16T07:51:42.844Z,102284.81
2023-04-16T07:54:11.570Z,102294.66
2023-04-16T07:56:41.066Z,102290.19
2023-04-16T08:01:42.927Z,102292.19
2023-04-16T08:04:12.308Z,102295.69
2023-04-16T08:06:40.492Z,102297.34
2023-04-16T08:09:08.741Z,102307.06
2023-04-16T08:11:39.939Z,102302.59
2023-04-16T08:14:09.361Z,102306.13
2023-04-16T08:16:37.255Z,102311.50
2023-04-16T08:19:05.195Z,102315.00
2023-04-16T08:21:34.334Z,102317.72
2023-04-16T08:24:02.370Z,102315.91
2023-04-16T08:26:30.350Z,102323.91
2023-04-16T08:28:58.297Z,102321.22
2023-04-16T08:31:27.726Z,102322.97
2023-04-16T08:33:57.810Z,102324.69
2023-04-16T08:36:25.791Z,102322.97
2023-04-16T08:38:53.770Z,102324.69
2023-04-16T08:41:23.155Z,102330.91
2023-04-16T08:43:56.675Z,102329.19
2023-04-16T08:46:30.838Z,102331.88
2023-04-16T08:49:02.178Z,102336.28
2023-04-16T08:51:35.075Z,102338.09
2023-04-16T08:54:05.936Z,102347.94
2023-04-16T08:56:37.826Z,102351.47
2023-04-16T08:59:06.432Z,102351.63
2023-04-16T09:01:38.005Z,102344.38
2023-04-16T09:04:08.297Z,102352.44
2023-04-16T09:06:38.204Z,102359.53
2023-04-16T09:09:08.267Z,102351.47
2023-04-16T09:11:36.996Z,102347.16
2023-04-16T09:14:05.786Z,102364.84
2023-04-16T09:16:36.037Z,102355.03
2023-04-16T09:19:04.081Z,102357.72
2023-04-16T09:21:32.206Z,102355.94
2023-04-16T09:24:01.447Z,102361.22
2023-04-16T09:26:29.514Z,102358.63
2023-04-16T09:28:57.505Z,102358.53
2023-04-16T09:31:25.534Z,102358.47
2023-04-16T09:34:04.974Z,102361.09
2023-04-16T09:36:33.653Z,102361.91
2023-04-16T09:39:02.214Z,102364.53
2023-04-16T09:41:32.260Z,102367.22
2023-04-16T09:44:02.239Z,102363.66
2023-04-16T09:46:32.439Z,102363.53
2023-04-16T09:49:09.779Z,102363.53
2023-04-16T09:51:38.627Z,102370.66
2023-04-16T09:54:07.205Z,102367.97
2023-04-16T09:56:40.375Z,102367.97
2023-04-16T09:59:09.847Z,102365.25
2023-04-16T10:01:38.042Z,102367.94
2023-04-16T10:04:08.049Z,102368.78
2023-04-16T10:06:36.256Z,102367.84
2023-04-16T10:09:09.241Z,102374.03
2023-04-16T10:11:38.476Z,102367.81
2023-04-16T10:14:06.615Z,102375.78
2023-04-16T10:16:35.683Z,102373.09
2023-04-16T10:19:03.768Z,102366.88
2023-04-16T10:21:34.216Z,102373.06
2023-04-16T10:24:05.642Z,102368.56
2023-04-16T10:26:34.610Z,102370.38
2023-04-16T10:29:03.670Z,102372.16
2023-04-16T10:31:34.408Z,102370.41
2023-04-16T10:34:03.526Z,102376.72
2023-04-16T10:36:37.320Z,102377.69
2023-04-16T10:39:05.411Z,102373.22
2023-04-16T10:41:34.511Z,102376.78
2023-04-16T10:44:09.720Z,102370.53
2023-04-16T10:46:39.998Z,102371.44
2023-04-16T10:49:15.984Z,102366.00
2023-04-16T10:51:54.104Z,102371.34
2023-04-16T10:54:25.633Z,102367.75
2023-04-16T10:56:55.356Z,102365.00
2023-04-16T10:59:24.608Z,102363.19
2023-04-16T11:01:56.110Z,102363.13
2023-04-16T11:04:38.694Z,102358.63
2023-04-16T11:07:21.040Z,102359.56
2023-04-16T11:09:59.429Z,102357.97
2023-04-16T11:12:34.298Z,102358.81
2023-04-16T11:15:03.418Z,102362.50
2023-04-16T11:17:33.932Z,102354.44
2023-04-16T11:20:02.308Z,102360.75
2023-04-16T11:22:31.768Z,102356.25
2023-04-16T11:24:59.747Z,102350.97
2023-04-16T11:27:27.693Z,102353.66
2023-04-16T11:30:00.183Z,102352.78
2023-04-16T11:32:28.226Z,102351.03
2023-04-16T11:34:56.306Z,102356.44
2023-04-16T11:37:35.062Z,102359.09
2023-04-16T11:40:09.658Z,102358.22
2023-04-16T11:42:42.186Z,102362.72
2023-04-16T11:45:13.996Z,102357.47
2023-04-16T11:47:46.314Z,102356.63
2023-04-16T11:50:19.514Z,102361.91
2023-04-16T11:52:49.668Z,102361.97
2023-04-16T11:55:21.184Z,102365.44
2023-04-16T11:57:49.685Z,102360.03
2023-04-16T12:00:23.111Z,102362.66
2023-04-16T12:02:53.909Z,102356.44
2023-04-16T12:05:31.121Z,102366.19
2023-04-16T12:08:02.585Z,102365.28
2023-04-16T12:10:31.398Z,102362.59
2023-04-16T12:13:14.041Z,102370.59
2023-04-16T12:15:46.544Z,102369.66
2023-04-16T12:18:15.014Z,102363.44
2023-04-16T12:20:44.268Z,102377.69
2023-04-16T12:23:24.432Z,102377.69
2023-04-16T12:25:52.512Z,102373.22
2023-04-16T12:28:31.699Z,102379.50
2023-04-16T12:31:00.080Z,102370.53
2023-04-16T12:33:28.322Z,102374.13
2023-04-16T12:35:56.371Z,102384.84
2023-04-16T12:38:26.920Z,102380.34
2023-04-16T12:40:57.140Z,102382.94
2023-04-16T12:43:25.486Z,102382.06
2023-04-16T12:45:53.639Z,102378.53
2023-04-16T12:48:21.673Z,102377.66
2023-04-16T12:50:49.647Z,102375.78
2023-04-16T12:53:17.659Z,102377.59
2023-04-16T12:55:47.145Z,102375.84
2023-04-16T12:58:15.062Z,102382.94
2023-04-16T13:00:43.009Z,102379.31
2023-04-16T13:03:11.240Z,102387.38
2023-04-16T13:05:39.373Z,102381.13
2023-04-16T13:08:07.767Z,102378.47
2023-04-16T13:10:36.521Z,102379.31
2023-04-16T13:13:06.420Z,102385.56
2023-04-16T13:15:34.392Z,102381.97
2023-04-16T13:18:02.389Z,102378.41
2023-04-16T13:20:30.398Z,102371.25
2023-04-16T13:22:58.430Z,102378.34
2023-04-16T13:25:26.350Z,102377.47
2023-04-16T13:27:54.257Z,102378.34
2023-04-16T13:30:23.703Z,102373.84
2023-04-16T13:32:51.800Z,102373.84
2023-04-16T13:35:20.086Z,102377.41
2023-04-16T13:37:48.048Z,102372.97
2023-04-16T13:40:16.082Z,102365.81
2023-04-16T13:42:44.066Z,102374.72
2023-04-16T13:45:12.114Z,102353.53
2023-04-16T13:47:42.732Z,102364.00
2023-04-16T13:50:11.595Z,102369.34
2023-04-16T13:52:39.586Z,102364.00
2023-04-16T13:55:09.665Z,102372.91
2023-04-16T13:57:37.823Z,102369.34
2023-04-16T14:00:07.136Z,102365.75
2023-04-16T14:02:35.763Z,102371.13
2023-04-16T14:05:06.826Z,102371.13
2023-04-16T14:07:34.972Z,102374.72
2023-04-16T14:10:02.868Z,102371.13
2023-04-16T14:12:32.463Z,102365.75
2023-04-16T14:15:01.935Z,102373.81
2023-04-16T14:17:29.910Z,102373.81
2023-04-16T14:19:57.969Z,102364.88
2023-04-16T14:22:27.271Z,102378.25
2023-04-16T14:24:55.204Z,102378.25
2023-04-16T14:27:23.437Z,102368.44
2023-04-16T14:29:54.276Z,102378.22
2023-04-16T14:32:22.310Z,102368.44
2023-04-16T14:34:50.273Z,102369.31
2023-04-16T14:37:18.976Z,102379.16
2023-04-16T14:39:48.278Z,102374.72
2023-04-16T14:42:16.360Z,102378.25
2023-04-16T14:44:44.306Z,102380.94
2023-04-16T14:47:12.424Z,102378.34
2023-04-16T14:49:42.579Z,102380.06
2023-04-16T14:52:10.519Z,102384.56
2023-04-16T14:54:38.625Z,102372.03
2023-04-16T14:57:10.671Z,102378.34
2023-04-16T14:59:38.613Z,102372.97
2023-04-16T15:02:07.957Z,102383.69
2023-04-16T15:04:36.367Z,102391.75
2023-04-16T15:07:04.365Z,102387.31
2023-04-16T15:09:32.381Z,102381.09
2023-04-16T15:12:00.797Z,102381.97
2023-04-16T15:14:30.124Z,102389.13
2023-04-16T15:16:58.152Z,102386.44
2023-04-16T15:19:26.922Z,102390.91
2023-04-16T15:21:55.899Z,102385.56
2023-04-16T15:24:23.908Z,102385.56
2023-04-16T15:26:52.076Z,102390.91
2023-04-16T15:29:20.129Z,102388.22
2023-04-16T15:31:50.141Z,102392.69
2023-04-16T15:34:18.657Z,102396.28
2023-04-16T15:36:46.616Z,102386.44
2023-04-16T15:39:14.541Z,102398.03
2023-04-16T15:41:59.299Z,102392.69
2023-04-16T15:44:29.000Z,102397.09
2023-04-16T15:46:58.278Z,102395.25
2023-04-16T15:49:26.400Z,102392.56
2023-04-16T15:51:54.680Z,102397.94
2023-04-16T15:54:22.658Z,102406.84
2023-04-16T15:56:51.275Z,102401.41
2023-04-16T15:59:19.276Z,102408.56
2023-04-16T16:01:47.342Z,102402.34
2023-04-16T16:04:16.776Z,102409.44
2023-04-16T16:06:44.880Z,102410.31
2023-04-16T16:09:12.964Z,102416.53
2023-04-16T16:11:41.418Z,102411.25
2023-04-16T16:14:09.364Z,102403.13
2023-04-16T16:16:37.307Z,102404.91
2023-04-16T16:19:05.475Z,102410.28
2023-04-16T16:21:34.823Z,102410.28
2023-04-16T16:24:05.654Z,102412.00
2023-04-16T16:26:33.583Z,102419.09
2023-04-16T16:29:01.547Z,102412.00
2023-04-16T16:31:29.523Z,102421.78
2023-04-16T16:33:57.520Z,102423.53
2023-04-16T16:36:26.592Z,102417.25
2023-04-16T16:38:56.634Z,102422.63
2023-04-16T16:41:24.624Z,102419.03
2023-04-16T16:43:55.823Z,102418.13
2023-04-16T16:46:23.904Z,102420.84
2023-04-16T16:48:52.081Z,102419.00
2023-04-16T16:51:20.026Z,102414.50
2023-04-16T16:53:51.117Z,102419.78
2023-04-16T16:56:20.425Z,102419.78
2023-04-16T16:58:48.325Z,102425.09
2023-04-16T17:01:16.223Z,102422.41
2023-04-16T17:03:44.330Z,102421.56
2023-04-16T17:06:13.165Z,102424.16
2023-04-16T17:08:41.331Z,102427.78
2023-04-16T17:11:09.255Z,102424.09
2023-04-16T17:13:38.572Z,102419.66
2023-04-16T17:16:06.821Z,102430.34
2023-04-16T17:18:34.977Z,102425.84
2023-04-16T17:21:03.306Z,102432.09
2023-04-16T17:23:31.272Z,102428.53
2023-04-16T17:26:01.150Z,102422.22
2023-04-16T17:28:29.063Z,102427.59
2023-04-16T17:30:58.475Z,102426.66
2023-04-16T17:33:26.482Z,102433.81
2023-04-16T17:35:54.471Z,102434.69
2023-04-16T17:38:22.426Z,102441.00
2023-04-16T17:40:52.700Z,102436.44
2023-04-16T17:43:20.604Z,102435.56
2023-04-16T17:45:51.679Z,102440.06
2023-04-16T17:48:21.054Z,102440.91
2023-04-16T17:50:49.887Z,102441.78
2023-04-16T17:53:22.235Z,102440.91
2023-04-16T17:55:55.963Z,102445.41
2023-04-16T17:58:27.189Z,102454.31
2023-04-16T18:00:57.664Z,102448.97
2023-04-16T18:03:30.051Z,102444.47
2023-04-16T18:05:58.196Z,102448.06
2023-04-16T18:08:26.687Z,102450.72
2023-04-16T18:10:55.398Z,102456.03
2023-04-16T18:13:23.596Z,102456.09
2023-04-16T18:15:51.657Z,102464.94
2023-04-16T18:18:20.632Z,102469.44
2023-04-16T18:20:49.927Z,102469.44
2023-04-16T18:23:17.880Z,102462.25
2023-04-16T18:25:48.799Z,102472.59
2023-04-16T18:28:17.619Z,102470.78
2023-04-16T18:30:46.018Z,102476.91
2023-04-16T18:35:49.865Z,102482.16
2023-04-16T18:38:17.927Z,102479.31
2023-04-16T18:40:46.955Z,102486.47
2023-04-16T18:43:14.871Z,102483.69
2023-04-16T18:45:42.827Z,102481.03
2023-04-16T18:48:10.879Z,102485.44
2023-04-16T18:50:38.853Z,102480.97
2023-04-16T18:53:08.234Z,102483.59
2023-04-16T18:55:36.155Z,102485.41
2023-04-16T18:58:04.066Z,102483.59
2023-04-16T19:00:32.249Z,102483.59
2023-04-16T19:03:00.578Z,102486.19
2023-04-16T19:05:29.167Z,102488.88
2023-04-16T19:07:59.651Z,102488.84
2023-04-16T19:10:29.283Z,102487.03
2023-04-16T19:12:57.965Z,102487.03
2023-04-16T19:15:26.029Z,102481.66
2023-04-16T19:17:54.197Z,102492.31
2023-04-16T19:20:22.186Z,102493.19
2023-04-16T19:22:50.102Z,102492.28
2023-04-16T19:25:18.248Z,102500.25
2023-04-16T19:27:47.662Z,102503.78
2023-04-16T19:30:15.823Z,102504.66
2023-04-16T19:32:43.798Z,102491.25
2023-04-16T19:35:12.552Z,102501.97
2023-04-16T19:37:43.599Z,102505.53
2023-04-16T19:40:12.282Z,102501.94
2023-04-16T19:42:40.451Z,102503.69
2023-04-16T19:45:10.538Z,102501.00
2023-04-16T19:47:38.624Z,102498.22
2023-04-16T19:50:10.330Z,102505.41
2023-04-16T19:52:39.099Z,102496.41
2023-04-16T19:55:08.455Z,102504.47
2023-04-16T19:57:36.375Z,102512.50
2023-04-16T20:00:05.252Z,102512.50
2023-04-16T20:02:34.628Z,102506.28
2023-04-16T20:05:02.706Z,102504.47
2023-04-16T20:07:30.766Z,102512.50
2023-04-16T20:09:58.764Z,102513.47
2023-04-16T20:12:26.740Z,102512.50
2023-04-16T20:14:54.787Z,102511.72
2023-04-16T20:17:22.768Z,102519.09
2023-04-16T20:19:52.134Z,102523.13
2023-04-16T20:22:20.257Z,102519.50
2023-04-16T20:24:54.928Z,102519.31
2023-04-16T20:27:22.844Z,102526.41
2023-04-16T20:29:51.816Z,102519.19
2023-04-16T20:32:20.013Z,102518.25
2023-04-16T20:34:48.884Z,102525.31
2023-04-16T20:37:18.336Z,102528.88
2023-04-16T20:39:46.831Z,102530.69
2023-04-16T20:42:18.056Z,102528.88
2023-04-16T20:44:50.274Z,102528.00
2023-04-16T20:47:18.166Z,102521.75
2023-04-16T20:49:47.171Z,102519.09
2023-04-16T20:52:19.186Z,102526.19
2023-04-16T20:54:47.213Z,102523.50
2023-04-16T20:57:15.160Z,102519.94
2023-04-16T20:59:43.079Z,102517.28
2023-04-16T21:02:11.233Z,102508.28
2023-04-16T21:04:39.268Z,102519.00
2023-04-16T21:07:09.868Z,102519.88
2023-04-16T21:09:39.206Z,102520.75
2023-04-16T21:12:07.596Z,102518.06
2023-04-16T21:14:35.543Z,102522.44
2023-04-16T21:17:03.488Z,102516.25
2023-04-16T21:19:34.410Z,102519.88
2023-04-16T21:22:02.572Z,102520.81
2023-04-16T21:24:31.218Z,102517.31
2023-04-16T21:27:00.652Z,102517.31
2023-04-16T21:29:28.675Z,102522.75
2023-04-16T21:31:56.847Z,102518.31
2023-04-16T21:34:24.891Z,102514.78
2023-04-16T21:36:52.886Z,102522.00
2023-04-16T21:39:21.770Z,102516.63
2023-04-16T21:41:49.713Z,102525.53
2023-04-16T21:44:22.023Z,102515.84
2023-04-16T21:46:50.044Z,102518.50
2023-04-16T21:49:18.039Z,102521.19
2023-04-16T21:51:46.164Z,102516.75
2023-04-16T21:54:17.851Z,102520.38
2023-04-16T21:56:48.931Z,102521.22
2023-04-16T21:59:16.892Z,102529.28
2023-04-16T22:01:46.410Z,102520.38
2023-04-16T22:04:14.432Z,102522.22
2023-04-16T22:06:46.404Z,102519.53
2023-04-16T22:09:15.476Z,102516.84
2023-04-16T22:11:46.504Z,102519.53
2023-04-16T22:14:14.609Z,102513.25
2023-04-16T22:16:44.703Z,102509.72
2023-04-16T22:19:14.864Z,102506.97
2023-04-16T22:21:42.758Z,102510.50
2023-04-16T22:24:10.689Z,102506.09
2023-04-16T22:26:38.844Z,102504.28
2023-04-16T22:29:06.838Z,102504.28
2023-04-16T22:31:34.784Z,102510.47
2023-04-16T22:34:03.595Z,102510.47
2023-04-16T22:36:33.034Z,102513.16
2023-04-16T22:39:01.163Z,102515.84
2023-04-16T22:41:29.119Z,102507.78
2023-04-16T22:44:00.002Z,102507.78
2023-04-16T22:46:28.040Z,102512.22
2023-04-16T22:48:55.988Z,102511.25
2023-04-16T22:51:24.487Z,102510.41
2023-04-16T22:53:53.937Z,102515.75
2023-04-16T22:56:22.017Z,102510.41
2023-04-16T22:58:50.364Z,102512.22
2023-04-16T23:01:18.352Z,102509.53
2023-04-16T23:03:48.583Z,102506.88
2023-04-16T23:06:17.260Z,102513.16
2023-04-16T23:08:46.424Z,102514.94
2023-04-16T23:11:15.993Z,102509.63
2023-04-16T23:13:43.927Z,102519.44
2023-04-16T23:16:11.959Z,102515.00
2023-04-16T23:18:39.923Z,102517.69
2023-04-16T23:21:07.865Z,102521.31
2023-04-16T23:23:35.791Z,102515.94
2023-04-16T23:26:03.702Z,102515.06
2023-04-16T23:28:33.059Z,102523.16
2023-04-16T23:31:01.030Z,102517.78
2023-04-16T23:33:29.071Z,102525.84
2023-04-16T23:35:57.044Z,102520.47
2023-04-16T23:38:25.087Z,102516.06
2023-04-16T23:40:52.972Z,102516.13
2023-04-16T23:43:20.972Z,102523.22
2023-04-16T23:45:50.367Z,102519.69
2023-04-16T23:48:18.350Z,102519.69
2023-04-16T23:50:46.353Z,102513.44
2023-04-16T23:53:14.263Z,102524.19
2023-04-16T23:55:42.230Z,102519.72
2023-04-16T23:58:10.174Z,102518.84
